sensor_id;sensor_type;location;lat;lon;timestamp;P1;durP1;ratioP1;P2;durP2;ratioP2
6463;SDS011;3265;42.694;23.282;2022-07-12T00:00:29;6.43;;;3.00;;
6463;SDS011;3265;42.694;23.282;2022-07-12T00:02:56;4.23;;;3.03;;
6463;SDS011;3265;42.694;23.282;2022-07-12T00:05:23;4.63;;;3.30;;
6463;SDS011;3265;42.694;23.282;2022-07-12T00:07:50;3.93;;;3.27;;
6463;SDS011;3265;42.694;23.282;2022-07-12T00:10:17;4.33;;;3.40;;
6463;SDS011;3265;42.694;23.282;2022-07-12T00:12:44;5.47;;;2.90;;
6463;SDS011;3265;42.694;23.282;2022-07-12T00:15:11;3.50;;;3.10;;
6463;SDS011;3265;42.694;23.282;2022-07-12T00:17:39;6.33;;;3.10;;
6463;SDS011;3265;42.694;23.282;2022-07-12T00:20:06;6.50;;;2.50;;
6463;SDS011;3265;42.694;23.282;2022-07-12T00:22:34;4.70;;;2.90;;
6463;SDS011;3265;42.694;23.282;2022-07-12T00:25:01;4.93;;;2.93;;
6463;SDS011;3265;42.694;23.282;2022-07-12T00:27:28;3.20;;;2.60;;
6463;SDS011;3265;42.694;23.282;2022-07-12T00:29:55;3.70;;;2.40;;
6463;SDS011;3265;42.694;23.282;2022-07-12T00:32:22;3.67;;;2.40;;
6463;SDS011;3265;42.694;23.282;2022-07-12T00:34:51;2.97;;;2.63;;
6463;SDS011;3265;42.694;23.282;2022-07-12T00:37:18;5.63;;;2.60;;
6463;SDS011;3265;42.694;23.282;2022-07-12T00:39:45;3.13;;;2.40;;
6463;SDS011;3265;42.694;23.282;2022-07-12T00:42:12;4.57;;;2.77;;
6463;SDS011;3265;42.694;23.282;2022-07-12T00:44:39;6.50;;;2.73;;
6463;SDS011;3265;42.694;23.282;2022-07-12T00:47:06;5.20;;;2.80;;
6463;SDS011;3265;42.694;23.282;2022-07-12T00:49:33;4.40;;;2.57;;
6463;SDS011;3265;42.694;23.282;2022-07-12T00:52:01;3.00;;;2.70;;
6463;SDS011;3265;42.694;23.282;2022-07-12T00:54:29;4.27;;;2.53;;
6463;SDS011;3265;42.694;23.282;2022-07-12T00:56:56;4.37;;;2.47;;
6463;SDS011;3265;42.694;23.282;2022-07-12T00:59:23;3.87;;;2.50;;
6463;SDS011;3265;42.694;23.282;2022-07-12T01:01:49;4.73;;;2.60;;
6463;SDS011;3265;42.694;23.282;2022-07-12T01:04:17;4.77;;;2.30;;
6463;SDS011;3265;42.694;23.282;2022-07-12T01:06:44;3.57;;;2.30;;
6463;SDS011;3265;42.694;23.282;2022-07-12T01:09:13;5.87;;;2.73;;
6463;SDS011;3265;42.694;23.282;2022-07-12T01:11:40;6.53;;;2.20;;
6463;SDS011;3265;42.694;23.282;2022-07-12T01:14:08;4.77;;;2.20;;
6463;SDS011;3265;42.694;23.282;2022-07-12T01:16:36;5.07;;;2.40;;
6463;SDS011;3265;42.694;23.282;2022-07-12T01:19:03;7.67;;;2.57;;
6463;SDS011;3265;42.694;23.282;2022-07-12T01:21:34;4.23;;;2.20;;
6463;SDS011;3265;42.694;23.282;2022-07-12T01:24:06;4.30;;;2.40;;
6463;SDS011;3265;42.694;23.282;2022-07-12T01:26:36;4.63;;;2.40;;
6463;SDS011;3265;42.694;23.282;2022-07-12T01:29:03;3.27;;;2.40;;
6463;SDS011;3265;42.694;23.282;2022-07-12T01:31:33;5.23;;;2.43;;
6463;SDS011;3265;42.694;23.282;2022-07-12T01:34:00;3.43;;;2.30;;
6463;SDS011;3265;42.694;23.282;2022-07-12T01:36:28;6.67;;;2.57;;
6463;SDS011;3265;42.694;23.282;2022-07-12T01:38:55;7.43;;;2.80;;
6463;SDS011;3265;42.694;23.282;2022-07-12T01:41:24;6.80;;;2.40;;
6463;SDS011;3265;42.694;23.282;2022-07-12T01:43:51;3.00;;;2.43;;
6463;SDS011;3265;42.694;23.282;2022-07-12T01:46:19;5.33;;;2.53;;
6463;SDS011;3265;42.694;23.282;2022-07-12T01:48:46;4.33;;;2.50;;
6463;SDS011;3265;42.694;23.282;2022-07-12T01:51:13;5.13;;;2.57;;
6463;SDS011;3265;42.694;23.282;2022-07-12T01:53:40;3.80;;;2.47;;
6463;SDS011;3265;42.694;23.282;2022-07-12T01:56:07;3.93;;;2.50;;
6463;SDS011;3265;42.694;23.282;2022-07-12T01:58:36;3.87;;;2.53;;
6463;SDS011;3265;42.694;23.282;2022-07-12T02:01:03;4.83;;;2.47;;
6463;SDS011;3265;42.694;23.282;2022-07-12T02:03:33;3.37;;;2.57;;
6463;SDS011;3265;42.694;23.282;2022-07-12T02:06:02;4.17;;;2.73;;
6463;SDS011;3265;42.694;23.282;2022-07-12T02:08:29;6.23;;;3.00;;
6463;SDS011;3265;42.694;23.282;2022-07-12T02:10:56;3.70;;;2.60;;
6463;SDS011;3265;42.694;23.282;2022-07-12T02:13:23;5.57;;;2.80;;
6463;SDS011;3265;42.694;23.282;2022-07-12T02:15:51;4.23;;;2.70;;
6463;SDS011;3265;42.694;23.282;2022-07-12T02:18:18;5.60;;;2.80;;
6463;SDS011;3265;42.694;23.282;2022-07-12T02:20:45;5.67;;;3.33;;
6463;SDS011;3265;42.694;23.282;2022-07-12T02:23:12;4.97;;;3.10;;
6463;SDS011;3265;42.694;23.282;2022-07-12T02:25:39;5.43;;;3.23;;
6463;SDS011;3265;42.694;23.282;2022-07-12T02:28:06;5.47;;;3.40;;
6463;SDS011;3265;42.694;23.282;2022-07-12T02:30:33;6.47;;;3.27;;
6463;SDS011;3265;42.694;23.282;2022-07-12T02:33:01;7.97;;;4.07;;
6463;SDS011;3265;42.694;23.282;2022-07-12T02:35:28;5.80;;;3.30;;
6463;SDS011;3265;42.694;23.282;2022-07-12T02:37:55;5.87;;;3.63;;
6463;SDS011;3265;42.694;23.282;2022-07-12T02:40:22;4.07;;;3.37;;
6463;SDS011;3265;42.694;23.282;2022-07-12T02:43:18;8.07;;;3.30;;
6463;SDS011;3265;42.694;23.282;2022-07-12T02:45:45;6.40;;;3.73;;
6463;SDS011;3265;42.694;23.282;2022-07-12T02:48:13;7.20;;;3.80;;
6463;SDS011;3265;42.694;23.282;2022-07-12T02:50:40;7.07;;;3.80;;
6463;SDS011;3265;42.694;23.282;2022-07-12T02:53:07;6.87;;;3.53;;
6463;SDS011;3265;42.694;23.282;2022-07-12T02:55:35;6.90;;;3.90;;
6463;SDS011;3265;42.694;23.282;2022-07-12T02:58:03;8.20;;;3.70;;
6463;SDS011;3265;42.694;23.282;2022-07-12T03:00:31;7.57;;;4.23;;
6463;SDS011;3265;42.694;23.282;2022-07-12T03:02:58;9.03;;;4.30;;
6463;SDS011;3265;42.694;23.282;2022-07-12T03:05:27;8.07;;;4.17;;
6463;SDS011;3265;42.694;23.282;2022-07-12T03:07:54;5.93;;;4.13;;
6463;SDS011;3265;42.694;23.282;2022-07-12T03:10:20;7.77;;;4.30;;
6463;SDS011;3265;42.694;23.282;2022-07-12T03:12:47;13.10;;;4.87;;
6463;SDS011;3265;42.694;23.282;2022-07-12T03:15:14;13.50;;;4.50;;
6463;SDS011;3265;42.694;23.282;2022-07-12T03:17:41;11.27;;;4.60;;
6463;SDS011;3265;42.694;23.282;2022-07-12T03:20:09;10.23;;;4.43;;
6463;SDS011;3265;42.694;23.282;2022-07-12T03:22:38;9.17;;;4.23;;
6463;SDS011;3265;42.694;23.282;2022-07-12T03:25:05;8.23;;;4.73;;
6463;SDS011;3265;42.694;23.282;2022-07-12T03:27:33;9.33;;;4.23;;
6463;SDS011;3265;42.694;23.282;2022-07-12T03:30:01;6.20;;;4.03;;
6463;SDS011;3265;42.694;23.282;2022-07-12T03:32:28;8.73;;;4.40;;
6463;SDS011;3265;42.694;23.282;2022-07-12T03:34:55;6.57;;;4.40;;
6463;SDS011;3265;42.694;23.282;2022-07-12T03:37:22;8.43;;;5.33;;
6463;SDS011;3265;42.694;23.282;2022-07-12T03:39:50;11.03;;;4.83;;
6463;SDS011;3265;42.694;23.282;2022-07-12T03:42:18;8.40;;;4.60;;
6463;SDS011;3265;42.694;23.282;2022-07-12T03:44:45;8.10;;;4.77;;
6463;SDS011;3265;42.694;23.282;2022-07-12T03:47:12;9.33;;;5.30;;
6463;SDS011;3265;42.694;23.282;2022-07-12T03:49:39;9.67;;;4.63;;
6463;SDS011;3265;42.694;23.282;2022-07-12T03:52:06;8.43;;;4.53;;
6463;SDS011;3265;42.694;23.282;2022-07-12T03:54:33;9.10;;;4.77;;
6463;SDS011;3265;42.694;23.282;2022-07-12T03:57:02;8.93;;;4.80;;
6463;SDS011;3265;42.694;23.282;2022-07-12T03:59:41;11.87;;;4.93;;
6463;SDS011;3265;42.694;23.282;2022-07-12T04:02:08;6.97;;;4.33;;
6463;SDS011;3265;42.694;23.282;2022-07-12T04:04:35;11.37;;;5.03;;
6463;SDS011;3265;42.694;23.282;2022-07-12T04:07:03;15.70;;;4.80;;
6463;SDS011;3265;42.694;23.282;2022-07-12T04:09:30;7.43;;;4.63;;
6463;SDS011;3265;42.694;23.282;2022-07-12T04:11:57;8.30;;;4.53;;
6463;SDS011;3265;42.694;23.282;2022-07-12T04:14:26;9.40;;;4.30;;
6463;SDS011;3265;42.694;23.282;2022-07-12T04:16:54;9.77;;;4.97;;
6463;SDS011;3265;42.694;23.282;2022-07-12T04:19:21;8.50;;;4.80;;
6463;SDS011;3265;42.694;23.282;2022-07-12T04:21:49;9.53;;;5.43;;
6463;SDS011;3265;42.694;23.282;2022-07-12T04:24:16;12.63;;;5.47;;
6463;SDS011;3265;42.694;23.282;2022-07-12T04:26:42;11.27;;;5.50;;
6463;SDS011;3265;42.694;23.282;2022-07-12T04:29:09;10.17;;;5.50;;
6463;SDS011;3265;42.694;23.282;2022-07-12T04:31:38;9.87;;;5.27;;
6463;SDS011;3265;42.694;23.282;2022-07-12T04:34:05;15.67;;;5.17;;
6463;SDS011;3265;42.694;23.282;2022-07-12T04:36:32;10.30;;;4.97;;
6463;SDS011;3265;42.694;23.282;2022-07-12T04:38:59;9.67;;;4.90;;
6463;SDS011;3265;42.694;23.282;2022-07-12T04:41:26;9.27;;;5.23;;
6463;SDS011;3265;42.694;23.282;2022-07-12T04:43:52;10.67;;;5.20;;
6463;SDS011;3265;42.694;23.282;2022-07-12T04:46:19;14.27;;;5.13;;
6463;SDS011;3265;42.694;23.282;2022-07-12T04:48:48;10.23;;;5.60;;
6463;SDS011;3265;42.694;23.282;2022-07-12T04:51:14;12.90;;;5.30;;
6463;SDS011;3265;42.694;23.282;2022-07-12T04:53:42;8.33;;;5.30;;
6463;SDS011;3265;42.694;23.282;2022-07-12T04:56:09;12.30;;;5.20;;
6463;SDS011;3265;42.694;23.282;2022-07-12T04:58:36;8.10;;;5.23;;
6463;SDS011;3265;42.694;23.282;2022-07-12T05:01:03;14.63;;;5.50;;
6463;SDS011;3265;42.694;23.282;2022-07-12T05:03:30;9.93;;;5.43;;
6463;SDS011;3265;42.694;23.282;2022-07-12T05:05:58;13.63;;;5.57;;
6463;SDS011;3265;42.694;23.282;2022-07-12T05:08:25;12.53;;;6.93;;
6463;SDS011;3265;42.694;23.282;2022-07-12T05:10:52;14.03;;;5.97;;
6463;SDS011;3265;42.694;23.282;2022-07-12T05:13:19;12.93;;;6.27;;
6463;SDS011;3265;42.694;23.282;2022-07-12T05:15:46;12.50;;;5.70;;
6463;SDS011;3265;42.694;23.282;2022-07-12T05:18:12;16.50;;;6.60;;
6463;SDS011;3265;42.694;23.282;2022-07-12T05:20:41;10.77;;;5.80;;
6463;SDS011;3265;42.694;23.282;2022-07-12T05:23:10;10.90;;;5.90;;
6463;SDS011;3265;42.694;23.282;2022-07-12T05:25:37;11.77;;;6.07;;
6463;SDS011;3265;42.694;23.282;2022-07-12T05:28:04;10.50;;;5.43;;
6463;SDS011;3265;42.694;23.282;2022-07-12T05:30:31;10.63;;;5.90;;
6463;SDS011;3265;42.694;23.282;2022-07-12T05:32:58;11.60;;;5.90;;
6463;SDS011;3265;42.694;23.282;2022-07-12T05:35:25;8.80;;;5.70;;
6463;SDS011;3265;42.694;23.282;2022-07-12T05:37:52;11.07;;;5.83;;
6463;SDS011;3265;42.694;23.282;2022-07-12T05:40:21;15.10;;;5.60;;
6463;SDS011;3265;42.694;23.282;2022-07-12T05:42:48;13.83;;;5.90;;
6463;SDS011;3265;42.694;23.282;2022-07-12T05:45:16;11.03;;;5.40;;
6463;SDS011;3265;42.694;23.282;2022-07-12T05:47:43;12.07;;;5.33;;
6463;SDS011;3265;42.694;23.282;2022-07-12T05:50:10;9.70;;;5.77;;
6463;SDS011;3265;42.694;23.282;2022-07-12T05:52:38;9.33;;;4.50;;
6463;SDS011;3265;42.694;23.282;2022-07-12T05:55:31;8.37;;;4.23;;
6463;SDS011;3265;42.694;23.282;2022-07-12T05:58:03;9.80;;;4.17;;
6463;SDS011;3265;42.694;23.282;2022-07-12T06:00:30;10.87;;;3.80;;
6463;SDS011;3265;42.694;23.282;2022-07-12T06:03:00;11.33;;;4.20;;
6463;SDS011;3265;42.694;23.282;2022-07-12T06:05:37;10.17;;;3.80;;
6463;SDS011;3265;42.694;23.282;2022-07-12T06:08:04;6.30;;;3.67;;
6463;SDS011;3265;42.694;23.282;2022-07-12T06:10:33;4.20;;;3.10;;
6463;SDS011;3265;42.694;23.282;2022-07-12T06:13:00;5.43;;;3.73;;
6463;SDS011;3265;42.694;23.282;2022-07-12T06:15:27;9.17;;;3.40;;
6463;SDS011;3265;42.694;23.282;2022-07-12T06:17:54;7.30;;;3.30;;
6463;SDS011;3265;42.694;23.282;2022-07-12T06:20:21;9.07;;;3.03;;
6463;SDS011;3265;42.694;23.282;2022-07-12T06:22:48;9.27;;;3.50;;
6463;SDS011;3265;42.694;23.282;2022-07-12T06:25:15;5.27;;;3.17;;
6463;SDS011;3265;42.694;23.282;2022-07-12T06:27:43;5.90;;;3.20;;
6463;SDS011;3265;42.694;23.282;2022-07-12T06:30:14;5.70;;;3.37;;
6463;SDS011;3265;42.694;23.282;2022-07-12T06:32:42;7.73;;;4.30;;
6463;SDS011;3265;42.694;23.282;2022-07-12T06:35:09;7.73;;;3.63;;
6463;SDS011;3265;42.694;23.282;2022-07-12T06:37:36;8.13;;;3.77;;
6463;SDS011;3265;42.694;23.282;2022-07-12T06:40:03;4.97;;;3.20;;
6463;SDS011;3265;42.694;23.282;2022-07-12T06:42:31;9.90;;;3.80;;
6463;SDS011;3265;42.694;23.282;2022-07-12T06:44:59;6.63;;;3.30;;
6463;SDS011;3265;42.694;23.282;2022-07-12T06:47:27;4.90;;;3.13;;
6463;SDS011;3265;42.694;23.282;2022-07-12T06:49:54;6.03;;;3.33;;
6463;SDS011;3265;42.694;23.282;2022-07-12T06:52:21;9.20;;;3.70;;
6463;SDS011;3265;42.694;23.282;2022-07-12T06:54:48;5.57;;;2.90;;
6463;SDS011;3265;42.694;23.282;2022-07-12T06:57:15;4.93;;;2.60;;
6463;SDS011;3265;42.694;23.282;2022-07-12T06:59:42;5.37;;;2.50;;
6463;SDS011;3265;42.694;23.282;2022-07-12T07:02:11;4.63;;;2.43;;
6463;SDS011;3265;42.694;23.282;2022-07-12T07:04:37;6.27;;;2.30;;
6463;SDS011;3265;42.694;23.282;2022-07-12T07:07:04;10.40;;;2.97;;
6463;SDS011;3265;42.694;23.282;2022-07-12T07:09:31;7.37;;;2.90;;
6463;SDS011;3265;42.694;23.282;2022-07-12T07:11:59;3.83;;;2.30;;
6463;SDS011;3265;42.694;23.282;2022-07-12T07:14:26;5.03;;;2.30;;
6463;SDS011;3265;42.694;23.282;2022-07-12T07:16:53;2.30;;;1.90;;
6463;SDS011;3265;42.694;23.282;2022-07-12T07:19:21;5.37;;;2.43;;
6463;SDS011;3265;42.694;23.282;2022-07-12T07:21:50;4.70;;;2.57;;
6463;SDS011;3265;42.694;23.282;2022-07-12T07:24:17;6.07;;;2.30;;
6463;SDS011;3265;42.694;23.282;2022-07-12T07:26:43;3.57;;;1.90;;
6463;SDS011;3265;42.694;23.282;2022-07-12T07:29:10;8.10;;;2.20;;
6463;SDS011;3265;42.694;23.282;2022-07-12T07:31:55;6.50;;;2.10;;
6463;SDS011;3265;42.694;23.282;2022-07-12T07:34:23;3.93;;;2.13;;
6463;SDS011;3265;42.694;23.282;2022-07-12T07:36:52;5.10;;;2.00;;
6463;SDS011;3265;42.694;23.282;2022-07-12T07:39:19;3.33;;;2.00;;
6463;SDS011;3265;42.694;23.282;2022-07-12T07:41:46;2.40;;;2.10;;
6463;SDS011;3265;42.694;23.282;2022-07-12T07:44:13;7.70;;;2.57;;
6463;SDS011;3265;42.694;23.282;2022-07-12T07:46:40;7.40;;;2.20;;
6463;SDS011;3265;42.694;23.282;2022-07-12T07:49:06;3.47;;;1.90;;
6463;SDS011;3265;42.694;23.282;2022-07-12T07:51:35;3.63;;;2.50;;
6463;SDS011;3265;42.694;23.282;2022-07-12T07:54:01;4.47;;;2.10;;
6463;SDS011;3265;42.694;23.282;2022-07-12T07:56:29;7.80;;;2.10;;
6463;SDS011;3265;42.694;23.282;2022-07-12T07:58:57;9.20;;;2.65;;
6463;SDS011;3265;42.694;23.282;2022-07-12T08:01:24;7.67;;;2.30;;
6463;SDS011;3265;42.694;23.282;2022-07-12T08:04:07;11.02;;;2.05;;
6463;SDS011;3265;42.694;23.282;2022-07-12T08:06:36;3.80;;;2.03;;
6463;SDS011;3265;42.694;23.282;2022-07-12T08:09:03;4.10;;;2.33;;
6463;SDS011;3265;42.694;23.282;2022-07-12T08:11:30;3.72;;;2.30;;
6463;SDS011;3265;42.694;23.282;2022-07-12T08:13:57;7.25;;;2.33;;
6463;SDS011;3265;42.694;23.282;2022-07-12T08:16:24;8.40;;;2.00;;
6463;SDS011;3265;42.694;23.282;2022-07-12T08:18:51;4.65;;;1.90;;
6463;SDS011;3265;42.694;23.282;2022-07-12T08:21:19;4.63;;;2.00;;
6463;SDS011;3265;42.694;23.282;2022-07-12T08:23:48;2.15;;;1.60;;
6463;SDS011;3265;42.694;23.282;2022-07-12T08:26:16;2.92;;;1.67;;
6463;SDS011;3265;42.694;23.282;2022-07-12T08:28:43;4.63;;;2.28;;
6463;SDS011;3265;42.694;23.282;2022-07-12T08:31:10;7.35;;;1.90;;
6463;SDS011;3265;42.694;23.282;2022-07-12T08:33:38;3.70;;;1.65;;
6463;SDS011;3265;42.694;23.282;2022-07-12T08:36:06;2.38;;;1.55;;
6463;SDS011;3265;42.694;23.282;2022-07-12T08:38:34;1.90;;;1.50;;
6463;SDS011;3265;42.694;23.282;2022-07-12T08:41:03;4.18;;;1.83;;
6463;SDS011;3265;42.694;23.282;2022-07-12T08:43:33;6.60;;;2.08;;
6463;SDS011;3265;42.694;23.282;2022-07-12T08:46:04;2.95;;;1.60;;
6463;SDS011;3265;42.694;23.282;2022-07-12T08:48:31;3.75;;;1.58;;
6463;SDS011;3265;42.694;23.282;2022-07-12T08:50:59;2.10;;;1.73;;
6463;SDS011;3265;42.694;23.282;2022-07-12T08:53:28;6.20;;;1.80;;
6463;SDS011;3265;42.694;23.282;2022-07-12T08:55:56;5.45;;;1.70;;
6463;SDS011;3265;42.694;23.282;2022-07-12T08:58:25;4.05;;;1.85;;
6463;SDS011;3265;42.694;23.282;2022-07-12T09:00:52;3.78;;;1.65;;
6463;SDS011;3265;42.694;23.282;2022-07-12T09:03:19;2.97;;;1.77;;
6463;SDS011;3265;42.694;23.282;2022-07-12T09:05:47;3.83;;;1.60;;
6463;SDS011;3265;42.694;23.282;2022-07-12T09:08:16;1.73;;;1.38;;
6463;SDS011;3265;42.694;23.282;2022-07-12T09:10:57;4.38;;;1.85;;
6463;SDS011;3265;42.694;23.282;2022-07-12T09:16:14;2.80;;;1.90;;
6463;SDS011;3265;42.694;23.282;2022-07-12T09:18:42;2.88;;;1.73;;
6463;SDS011;3265;42.694;23.282;2022-07-12T09:21:09;6.00;;;1.50;;
6463;SDS011;3265;42.694;23.282;2022-07-12T09:23:36;4.15;;;1.33;;
6463;SDS011;3265;42.694;23.282;2022-07-12T09:26:16;4.82;;;1.52;;
6463;SDS011;3265;42.694;23.282;2022-07-12T09:28:43;4.40;;;1.60;;
6463;SDS011;3265;42.694;23.282;2022-07-12T09:31:11;2.83;;;1.73;;
6463;SDS011;3265;42.694;23.282;2022-07-12T09:33:38;3.78;;;1.65;;
6463;SDS011;3265;42.694;23.282;2022-07-12T09:36:23;3.25;;;1.80;;
6463;SDS011;3265;42.694;23.282;2022-07-12T09:38:51;5.40;;;1.77;;
6463;SDS011;3265;42.694;23.282;2022-07-12T09:41:20;2.80;;;1.70;;
6463;SDS011;3265;42.694;23.282;2022-07-12T09:43:48;4.97;;;1.40;;
6463;SDS011;3265;42.694;23.282;2022-07-12T09:46:17;2.92;;;1.63;;
6463;SDS011;3265;42.694;23.282;2022-07-12T09:48:44;4.40;;;1.40;;
6463;SDS011;3265;42.694;23.282;2022-07-12T09:51:14;2.70;;;1.48;;
6463;SDS011;3265;42.694;23.282;2022-07-12T09:53:43;3.60;;;1.70;;
6463;SDS011;3265;42.694;23.282;2022-07-12T09:56:11;3.13;;;1.55;;
6463;SDS011;3265;42.694;23.282;2022-07-12T09:58:39;2.60;;;1.48;;
6463;SDS011;3265;42.694;23.282;2022-07-12T10:01:13;3.33;;;1.40;;
6463;SDS011;3265;42.694;23.282;2022-07-12T10:03:44;4.25;;;1.40;;
6463;SDS011;3265;42.694;23.282;2022-07-12T10:06:12;2.67;;;1.30;;
6463;SDS011;3265;42.694;23.282;2022-07-12T10:08:43;4.97;;;1.52;;
6463;SDS011;3265;42.694;23.282;2022-07-12T10:11:10;2.53;;;1.40;;
6463;SDS011;3265;42.694;23.282;2022-07-12T10:13:38;2.55;;;1.30;;
6463;SDS011;3265;42.694;23.282;2022-07-12T10:16:06;5.45;;;1.67;;
6463;SDS011;3265;42.694;23.282;2022-07-12T10:18:38;5.32;;;2.33;;
6463;SDS011;3265;42.694;23.282;2022-07-12T10:21:16;9.18;;;2.33;;
6463;SDS011;3265;42.694;23.282;2022-07-12T10:23:45;3.03;;;1.67;;
6463;SDS011;3265;42.694;23.282;2022-07-12T10:26:25;3.88;;;1.35;;
6463;SDS011;3265;42.694;23.282;2022-07-12T10:29:04;4.05;;;1.40;;
6463;SDS011;3265;42.694;23.282;2022-07-12T10:31:34;4.10;;;1.48;;
6463;SDS011;3265;42.694;23.282;2022-07-12T10:34:11;2.20;;;1.50;;
6463;SDS011;3265;42.694;23.282;2022-07-12T10:37:07;1.85;;;1.35;;
6463;SDS011;3265;42.694;23.282;2022-07-12T10:39:37;3.95;;;1.50;;
6463;SDS011;3265;42.694;23.282;2022-07-12T10:42:15;4.25;;;1.70;;
6463;SDS011;3265;42.694;23.282;2022-07-12T10:44:44;3.83;;;1.33;;
6463;SDS011;3265;42.694;23.282;2022-07-12T10:47:13;4.35;;;1.40;;
6463;SDS011;3265;42.694;23.282;2022-07-12T10:49:48;4.35;;;1.77;;
6463;SDS011;3265;42.694;23.282;2022-07-12T10:52:23;6.97;;;1.60;;
6463;SDS011;3265;42.694;23.282;2022-07-12T10:57:48;2.90;;;1.33;;
6463;SDS011;3265;42.694;23.282;2022-07-12T11:00:17;6.20;;;1.30;;
6463;SDS011;3265;42.694;23.282;2022-07-12T11:02:45;3.83;;;1.42;;
6463;SDS011;3265;42.694;23.282;2022-07-12T11:05:13;2.97;;;1.77;;
6463;SDS011;3265;42.694;23.282;2022-07-12T11:07:40;4.25;;;1.80;;
6463;SDS011;3265;42.694;23.282;2022-07-12T11:10:07;2.25;;;1.80;;
6463;SDS011;3265;42.694;23.282;2022-07-12T11:12:38;2.20;;;1.70;;
6463;SDS011;3265;42.694;23.282;2022-07-12T11:15:06;4.63;;;1.58;;
6463;SDS011;3265;42.694;23.282;2022-07-12T11:17:33;3.45;;;1.50;;
6463;SDS011;3265;42.694;23.282;2022-07-12T11:20:04;2.03;;;1.40;;
6463;SDS011;3265;42.694;23.282;2022-07-12T11:22:36;4.40;;;1.50;;
6463;SDS011;3265;42.694;23.282;2022-07-12T11:25:05;3.08;;;1.50;;
6463;SDS011;3265;42.694;23.282;2022-07-12T11:27:33;4.60;;;1.50;;
6463;SDS011;3265;42.694;23.282;2022-07-12T11:30:01;3.85;;;1.80;;
6463;SDS011;3265;42.694;23.282;2022-07-12T11:32:33;3.60;;;1.73;;
6463;SDS011;3265;42.694;23.282;2022-07-12T11:35:01;3.95;;;1.65;;
6463;SDS011;3265;42.694;23.282;2022-07-12T11:37:28;2.58;;;1.40;;
6463;SDS011;3265;42.694;23.282;2022-07-12T11:39:57;3.67;;;1.50;;
6463;SDS011;3265;42.694;23.282;2022-07-12T11:42:24;5.28;;;1.40;;
6463;SDS011;3265;42.694;23.282;2022-07-12T11:44:51;4.78;;;1.52;;
6463;SDS011;3265;42.694;23.282;2022-07-12T11:47:19;2.83;;;1.60;;
6463;SDS011;3265;42.694;23.282;2022-07-12T11:49:48;3.45;;;1.40;;
6463;SDS011;3265;42.694;23.282;2022-07-12T11:52:17;1.48;;;1.38;;
6463;SDS011;3265;42.694;23.282;2022-07-12T11:54:45;2.65;;;1.50;;
6463;SDS011;3265;42.694;23.282;2022-07-12T11:57:14;2.17;;;1.60;;
6463;SDS011;3265;42.694;23.282;2022-07-12T11:59:41;2.50;;;1.30;;
6463;SDS011;3265;42.694;23.282;2022-07-12T12:02:10;1.90;;;1.30;;
6463;SDS011;3265;42.694;23.282;2022-07-12T12:04:44;2.03;;;1.45;;
6463;SDS011;3265;42.694;23.282;2022-07-12T12:07:12;1.85;;;1.50;;
6463;SDS011;3265;42.694;23.282;2022-07-12T12:10:03;3.17;;;1.80;;
6463;SDS011;3265;42.694;23.282;2022-07-12T12:12:39;3.15;;;1.75;;
6463;SDS011;3265;42.694;23.282;2022-07-12T12:15:09;8.52;;;2.42;;
6463;SDS011;3265;42.694;23.282;2022-07-12T12:17:42;3.95;;;1.60;;
6463;SDS011;3265;42.694;23.282;2022-07-12T12:20:11;1.63;;;1.33;;
6463;SDS011;3265;42.694;23.282;2022-07-12T12:22:39;1.92;;;1.50;;
6463;SDS011;3265;42.694;23.282;2022-07-12T12:25:07;2.88;;;1.77;;
6463;SDS011;3265;42.694;23.282;2022-07-12T12:27:46;2.53;;;1.50;;
6463;SDS011;3265;42.694;23.282;2022-07-12T12:30:14;3.45;;;1.70;;
6463;SDS011;3265;42.694;23.282;2022-07-12T12:32:43;4.50;;;1.70;;
6463;SDS011;3265;42.694;23.282;2022-07-12T12:35:14;5.47;;;1.70;;
6463;SDS011;3265;42.694;23.282;2022-07-12T12:37:52;3.25;;;1.63;;
6463;SDS011;3265;42.694;23.282;2022-07-12T12:40:23;4.60;;;1.65;;
6463;SDS011;3265;42.694;23.282;2022-07-12T12:42:52;2.08;;;1.50;;
6463;SDS011;3265;42.694;23.282;2022-07-12T12:45:31;4.55;;;1.50;;
6463;SDS011;3265;42.694;23.282;2022-07-12T12:47:59;3.95;;;2.10;;
6463;SDS011;3265;42.694;23.282;2022-07-12T12:50:40;2.58;;;1.75;;
6463;SDS011;3265;42.694;23.282;2022-07-12T12:53:12;5.97;;;1.77;;
6463;SDS011;3265;42.694;23.282;2022-07-12T12:55:40;1.77;;;1.50;;
6463;SDS011;3265;42.694;23.282;2022-07-12T12:58:10;2.40;;;1.52;;
6463;SDS011;3265;42.694;23.282;2022-07-12T13:00:38;2.63;;;1.40;;
6463;SDS011;3265;42.694;23.282;2022-07-12T13:03:06;1.45;;;1.27;;
6463;SDS011;3265;42.694;23.282;2022-07-12T13:05:34;7.15;;;1.70;;
6463;SDS011;3265;42.694;23.282;2022-07-12T13:08:02;4.70;;;1.58;;
6463;SDS011;3265;42.694;23.282;2022-07-12T13:10:30;4.25;;;1.50;;
6463;SDS011;3265;42.694;23.282;2022-07-12T13:12:58;3.35;;;1.75;;
6463;SDS011;3265;42.694;23.282;2022-07-12T13:15:27;4.63;;;1.50;;
6463;SDS011;3265;42.694;23.282;2022-07-12T13:17:54;2.50;;;1.45;;
6463;SDS011;3265;42.694;23.282;2022-07-12T13:20:22;2.05;;;1.50;;
6463;SDS011;3265;42.694;23.282;2022-07-12T13:22:49;4.13;;;1.70;;
6463;SDS011;3265;42.694;23.282;2022-07-12T13:25:16;4.10;;;1.58;;
6463;SDS011;3265;42.694;23.282;2022-07-12T13:27:43;3.80;;;1.60;;
6463;SDS011;3265;42.694;23.282;2022-07-12T13:30:12;3.05;;;1.40;;
6463;SDS011;3265;42.694;23.282;2022-07-12T13:32:41;4.68;;;1.90;;
6463;SDS011;3265;42.694;23.282;2022-07-12T13:35:09;2.20;;;1.67;;
6463;SDS011;3265;42.694;23.282;2022-07-12T13:37:37;2.53;;;1.52;;
6463;SDS011;3265;42.694;23.282;2022-07-12T13:40:05;4.40;;;1.60;;
6463;SDS011;3265;42.694;23.282;2022-07-12T13:42:41;4.97;;;1.40;;
6463;SDS011;3265;42.694;23.282;2022-07-12T13:45:11;3.63;;;1.63;;
6463;SDS011;3265;42.694;23.282;2022-07-12T13:47:40;4.85;;;2.35;;
6463;SDS011;3265;42.694;23.282;2022-07-12T13:50:08;3.67;;;1.95;;
6463;SDS011;3265;42.694;23.282;2022-07-12T13:52:37;5.53;;;2.28;;
6463;SDS011;3265;42.694;23.282;2022-07-12T13:55:06;2.72;;;2.10;;
6463;SDS011;3265;42.694;23.282;2022-07-12T13:57:33;4.85;;;1.80;;
6463;SDS011;3265;42.694;23.282;2022-07-12T14:00:02;4.88;;;1.90;;
6463;SDS011;3265;42.694;23.282;2022-07-12T14:02:34;3.78;;;1.88;;
6463;SDS011;3265;42.694;23.282;2022-07-12T14:05:02;4.32;;;1.60;;
6463;SDS011;3265;42.694;23.282;2022-07-12T14:07:30;6.95;;;1.70;;
6463;SDS011;3265;42.694;23.282;2022-07-12T14:09:57;3.20;;;1.58;;
6463;SDS011;3265;42.694;23.282;2022-07-12T14:12:24;3.33;;;1.60;;
6463;SDS011;3265;42.694;23.282;2022-07-12T14:14:51;2.80;;;1.40;;
6463;SDS011;3265;42.694;23.282;2022-07-12T14:17:36;4.22;;;1.50;;
6463;SDS011;3265;42.694;23.282;2022-07-12T14:20:05;5.97;;;1.63;;
6463;SDS011;3265;42.694;23.282;2022-07-12T14:22:33;5.45;;;1.70;;
6463;SDS011;3265;42.694;23.282;2022-07-12T14:25:00;4.80;;;1.63;;
6463;SDS011;3265;42.694;23.282;2022-07-12T14:27:27;5.63;;;1.60;;
6463;SDS011;3265;42.694;23.282;2022-07-12T14:29:54;5.05;;;1.88;;
6463;SDS011;3265;42.694;23.282;2022-07-12T14:32:21;1.63;;;1.45;;
6463;SDS011;3265;42.694;23.282;2022-07-12T14:34:48;7.35;;;2.05;;
6463;SDS011;3265;42.694;23.282;2022-07-12T14:37:16;4.38;;;1.58;;
6463;SDS011;3265;42.694;23.282;2022-07-12T14:39:43;4.07;;;1.77;;
6463;SDS011;3265;42.694;23.282;2022-07-12T14:42:11;1.65;;;1.55;;
6463;SDS011;3265;42.694;23.282;2022-07-12T14:44:38;6.65;;;1.90;;
6463;SDS011;3265;42.694;23.282;2022-07-12T14:47:05;6.13;;;1.60;;
6463;SDS011;3265;42.694;23.282;2022-07-12T14:49:33;6.63;;;2.00;;
6463;SDS011;3265;42.694;23.282;2022-07-12T14:52:01;4.18;;;1.40;;
6463;SDS011;3265;42.694;23.282;2022-07-12T14:54:30;3.40;;;1.50;;
6463;SDS011;3265;42.694;23.282;2022-07-12T14:56:58;1.65;;;1.40;;
6463;SDS011;3265;42.694;23.282;2022-07-12T14:59:25;13.98;;;1.83;;
6463;SDS011;3265;42.694;23.282;2022-07-12T15:01:53;2.90;;;1.70;;
6463;SDS011;3265;42.694;23.282;2022-07-12T15:04:20;2.22;;;1.70;;
6463;SDS011;3265;42.694;23.282;2022-07-12T15:06:46;4.70;;;2.00;;
6463;SDS011;3265;42.694;23.282;2022-07-12T15:09:14;4.88;;;1.70;;
6463;SDS011;3265;42.694;23.282;2022-07-12T15:11:42;5.30;;;2.60;;
6463;SDS011;3265;42.694;23.282;2022-07-12T15:14:09;6.20;;;2.75;;